sensor_id;sensor_type;location;lat;lon;timestamp;temperature;humidity
30473;DHT22;17263;48.160;11.452;2022-12-10T00:01:17;1.50;99.90
30473;DHT22;17263;48.160;11.452;2022-12-10T00:03:45;1.50;99.90
30473;DHT22;17263;48.160;11.452;2022-12-10T00:06:16;1.60;99.90
30473;DHT22;17263;48.160;11.452;2022-12-10T00:08:44;1.60;99.90
30473;DHT22;17263;48.160;11.452;2022-12-10T00:11:12;1.60;99.90
30473;DHT22;17263;48.160;11.452;2022-12-10T00:13:39;1.60;99.90
30473;DHT22;17263;48.160;11.452;2022-12-10T00:16:08;1.50;99.90
30473;DHT22;17263;48.160;11.452;2022-12-10T00:18:35;1.50;99.90
30473;DHT22;17263;48.160;11.452;2022-12-10T00:21:03;1.50;99.90
30473;DHT22;17263;48.160;11.452;2022-12-10T00:23:30;1.50;99.90
30473;DHT22;17263;48.160;11.452;2022-12-10T00:26:08;1.40;99.90
30473;DHT22;17263;48.160;11.452;2022-12-10T00:28:36;1.40;99.90
30473;DHT22;17263;48.160;11.452;2022-12-10T00:31:12;1.40;99.90
30473;DHT22;17263;48.160;11.452;2022-12-10T00:33:39;1.40;99.90
30473;DHT22;17263;48.160;11.452;2022-12-10T00:36:16;1.40;99.90
30473;DHT22;17263;48.160;11.452;2022-12-10T00:38:43;1.50;99.90
30473;DHT22;17263;48.160;11.452;2022-12-10T00:41:10;1.50;99.90
30473;DHT22;17263;48.160;11.452;2022-12-10T00:43:37;1.50;99.90
30473;DHT22;17263;48.160;11.452;2022-12-10T00:46:04;1.50;99.90
30473;DHT22;17263;48.160;11.452;2022-12-10T00:48:31;1.50;99.90
30473;DHT22;17263;48.160;11.452;2022-12-10T00:51:03;1.50;99.90
30473;DHT22;17263;48.160;11.452;2022-12-10T00:53:32;1.50;99.90
30473;DHT22;17263;48.160;11.452;2022-12-10T00:55:59;1.50;99.90
30473;DHT22;17263;48.160;11.452;2022-12-10T00:58:32;1.50;99.90
30473;DHT22;17263;48.160;11.452;2022-12-10T01:01:19;1.50;99.90
30473;DHT22;17263;48.160;11.452;2022-12-10T01:03:47;1.50;99.90
30473;DHT22;17263;48.160;11.452;2022-12-10T01:06:17;1.40;99.90
30473;DHT22;17263;48.160;11.452;2022-12-10T01:08:44;1.40;99.90
30473;DHT22;17263;48.160;11.452;2022-12-10T01:11:12;1.40;99.90
30473;DHT22;17263;48.160;11.452;2022-12-10T01:13:39;1.40;99.90
30473;DHT22;17263;48.160;11.452;2022-12-10T01:16:07;1.40;99.90
30473;DHT22;17263;48.160;11.452;2022-12-10T01:18:33;1.40;99.90
30473;DHT22;17263;48.160;11.452;2022-12-10T01:21:01;1.40;99.90
30473;DHT22;17263;48.160;11.452;2022-12-10T01:23:30;1.40;99.90
30473;DHT22;17263;48.160;11.452;2022-12-10T01:25:59;1.30;99.90
30473;DHT22;17263;48.160;11.452;2022-12-10T01:28:25;1.30;99.90
30473;DHT22;17263;48.160;11.452;2022-12-10T01:30:53;1.30;99.90
30473;DHT22;17263;48.160;11.452;2022-12-10T01:33:19;1.30;99.90
30473;DHT22;17263;48.160;11.452;2022-12-10T01:35:45;1.30;99.90
30473;DHT22;17263;48.160;11.452;2022-12-10T01:38:11;1.40;99.90
30473;DHT22;17263;48.160;11.452;2022-12-10T01:40:38;1.40;99.90
30473;DHT22;17263;48.160;11.452;2022-12-10T01:43:04;1.40;99.90
30473;DHT22;17263;48.160;11.452;2022-12-10T01:45:30;1.40;99.90
30473;DHT22;17263;48.160;11.452;2022-12-10T01:47:57;1.40;99.90
30473;DHT22;17263;48.160;11.452;2022-12-10T01:50:23;1.40;99.90
30473;DHT22;17263;48.160;11.452;2022-12-10T01:52:49;1.40;99.90
30473;DHT22;17263;48.160;11.452;2022-12-10T01:58:03;1.40;99.90
30473;DHT22;17263;48.160;11.452;2022-12-10T02:00:31;1.40;99.90
30473;DHT22;17263;48.160;11.452;2022-12-10T02:03:05;1.40;99.90
30473;DHT22;17263;48.160;11.452;2022-12-10T02:05:41;1.50;99.90
30473;DHT22;17263;48.160;11.452;2022-12-10T02:08:18;1.40;99.90
30473;DHT22;17263;48.160;11.452;2022-12-10T02:13:30;1.30;99.90
30473;DHT22;17263;48.160;11.452;2022-12-10T02:16:11;1.40;99.90
30473;DHT22;17263;48.160;11.452;2022-12-10T02:18:47;1.30;99.90
30473;DHT22;17263;48.160;11.452;2022-12-10T02:21:36;1.30;99.90
30473;DHT22;17263;48.160;11.452;2022-12-10T02:24:09;1.30;99.90
30473;DHT22;17263;48.160;11.452;2022-12-10T02:26:45;1.30;99.90
30473;DHT22;17263;48.160;11.452;2022-12-10T02:29:19;1.30;99.90
30473;DHT22;17263;48.160;11.452;2022-12-10T02:32:02;1.30;99.90
30473;DHT22;17263;48.160;11.452;2022-12-10T02:34:32;1.30;99.90
30473;DHT22;17263;48.160;11.452;2022-12-10T02:37:05;1.30;99.90
30473;DHT22;17263;48.160;11.452;2022-12-10T02:39:37;1.20;99.90
30473;DHT22;17263;48.160;11.452;2022-12-10T02:42:06;1.20;99.90
30473;DHT22;17263;48.160;11.452;2022-12-10T02:44:35;1.20;99.90
30473;DHT22;17263;48.160;11.452;2022-12-10T02:47:02;1.20;99.90
30473;DHT22;17263;48.160;11.452;2022-12-10T02:49:30;1.10;99.90
30473;DHT22;17263;48.160;11.452;2022-12-10T02:51:56;1.10;99.90
30473;DHT22;17263;48.160;11.452;2022-12-10T03:08:34;1.10;99.90
30473;DHT22;17263;48.160;11.452;2022-12-10T03:13:59;1.20;99.90
30473;DHT22;17263;48.160;11.452;2022-12-10T03:16:29;1.20;99.90
30473;DHT22;17263;48.160;11.452;2022-12-10T03:19:01;1.10;99.90
30473;DHT22;17263;48.160;11.452;2022-12-10T03:21:29;1.20;99.90
30473;DHT22;17263;48.160;11.452;2022-12-10T03:23:55;1.10;99.90
30473;DHT22;17263;48.160;11.452;2022-12-10T03:26:23;1.10;99.90
30473;DHT22;17263;48.160;11.452;2022-12-10T03:28:52;1.10;99.90
30473;DHT22;17263;48.160;11.452;2022-12-10T03:31:21;1.10;99.90
30473;DHT22;17263;48.160;11.452;2022-12-10T03:33:48;1.10;99.90
30473;DHT22;17263;48.160;11.452;2022-12-10T03:36:17;1.10;99.90
30473;DHT22;17263;48.160;11.452;2022-12-10T03:38:44;1.10;99.90
30473;DHT22;17263;48.160;11.452;2022-12-10T03:41:10;1.10;99.90
30473;DHT22;17263;48.160;11.452;2022-12-10T03:43:53;1.10;99.90
30473;DHT22;17263;48.160;11.452;2022-12-10T03:46:19;1.10;99.90
30473;DHT22;17263;48.160;11.452;2022-12-10T03:48:45;1.10;99.90
30473;DHT22;17263;48.160;11.452;2022-12-10T03:51:11;1.10;99.90
30473;DHT22;17263;48.160;11.452;2022-12-10T03:53:37;1.10;99.90
30473;DHT22;17263;48.160;11.452;2022-12-10T03:56:03;1.10;99.90
30473;DHT22;17263;48.160;11.452;2022-12-10T03:58:29;1.10;99.90
30473;DHT22;17263;48.160;11.452;2022-12-10T04:00:55;1.10;99.90
30473;DHT22;17263;48.160;11.452;2022-12-10T04:03:21;1.10;99.90
30473;DHT22;17263;48.160;11.452;2022-12-10T04:05:47;1.10;99.90
30473;DHT22;17263;48.160;11.452;2022-12-10T04:08:13;1.20;99.90
30473;DHT22;17263;48.160;11.452;2022-12-10T04:10:39;1.20;99.90
30473;DHT22;17263;48.160;11.452;2022-12-10T04:13:05;1.10;99.90
30473;DHT22;17263;48.160;11.452;2022-12-10T04:15:50;1.10;99.90
30473;DHT22;17263;48.160;11.452;2022-12-10T04:18:34;1.10;99.90
30473;DHT22;17263;48.160;11.452;2022-12-10T04:21:00;1.10;99.90
30473;DHT22;17263;48.160;11.452;2022-12-10T04:23:45;1.10;99.90
30473;DHT22;17263;48.160;11.452;2022-12-10T04:26:29;1.10;99.90
30473;DHT22;17263;48.160;11.452;2022-12-10T04:29:14;1.10;99.90
30473;DHT22;17263;48.160;11.452;2022-12-10T04:31:40;1.10;99.90
30473;DHT22;17263;48.160;11.452;2022-12-10T04:34:06;1.10;99.90
30473;DHT22;17263;48.160;11.452;2022-12-10T04:36:32;1.10;99.90
30473;DHT22;17263;48.160;11.452;2022-12-10T04:38:58;1.10;99.90
30473;DHT22;17263;48.160;11.452;2022-12-10T04:41:24;1.00;99.90
30473;DHT22;17263;48.160;11.452;2022-12-10T04:43:52;1.00;99.90
30473;DHT22;17263;48.160;11.452;2022-12-10T04:46:18;1.00;99.90
30473;DHT22;17263;48.160;11.452;2022-12-10T04:48:44;1.00;99.90
30473;DHT22;17263;48.160;11.452;2022-12-10T04:51:10;1.00;99.90
30473;DHT22;17263;48.160;11.452;2022-12-10T04:53:36;1.10;99.90
30473;DHT22;17263;48.160;11.452;2022-12-10T04:56:02;1.10;99.90
30473;DHT22;17263;48.160;11.452;2022-12-10T04:58:31;1.10;99.90
30473;DHT22;17263;48.160;11.452;2022-12-10T05:01:05;1.10;99.90
30473;DHT22;17263;48.160;11.452;2022-12-10T05:03:33;1.10;99.90
30473;DHT22;17263;48.160;11.452;2022-12-10T05:06:11;1.10;99.90
30473;DHT22;17263;48.160;11.452;2022-12-10T05:08:39;1.10;99.90
30473;DHT22;17263;48.160;11.452;2022-12-10T05:11:11;1.20;99.90
30473;DHT22;17263;48.160;11.452;2022-12-10T05:13:37;1.10;99.90
30473;DHT22;17263;48.160;11.452;2022-12-10T05:16:05;1.10;99.90
30473;DHT22;17263;48.160;11.452;2022-12-10T05:18:31;1.30;99.90
30473;DHT22;17263;48.160;11.452;2022-12-10T05:20:59;1.20;99.90
30473;DHT22;17263;48.160;11.452;2022-12-10T05:23:25;1.20;99.90
30473;DHT22;17263;48.160;11.452;2022-12-10T05:26:17;1.10;99.90
30473;DHT22;17263;48.160;11.452;2022-12-10T05:28:47;1.10;99.90
30473;DHT22;17263;48.160;11.452;2022-12-10T05:31:28;1.10;99.90
30473;DHT22;17263;48.160;11.452;2022-12-10T05:33:55;1.10;99.90
30473;DHT22;17263;48.160;11.452;2022-12-10T05:36:24;1.10;99.90
30473;DHT22;17263;48.160;11.452;2022-12-10T05:38:52;1.10;99.90
30473;DHT22;17263;48.160;11.452;2022-12-10T05:41:22;1.10;99.90
30473;DHT22;17263;48.160;11.452;2022-12-10T05:43:50;1.10;99.90
30473;DHT22;17263;48.160;11.452;2022-12-10T05:46:20;1.10;99.90
30473;DHT22;17263;48.160;11.452;2022-12-10T05:48:46;1.10;99.90
30473;DHT22;17263;48.160;11.452;2022-12-10T05:51:15;1.10;99.90
30473;DHT22;17263;48.160;11.452;2022-12-10T05:53:42;1.10;99.90
30473;DHT22;17263;48.160;11.452;2022-12-10T05:56:10;1.10;99.90
30473;DHT22;17263;48.160;11.452;2022-12-10T05:58:37;1.10;99.90
30473;DHT22;17263;48.160;11.452;2022-12-10T06:01:12;1.10;99.90
30473;DHT22;17263;48.160;11.452;2022-12-10T06:03:38;1.10;99.90
30473;DHT22;17263;48.160;11.452;2022-12-10T06:06:05;1.20;99.90
30473;DHT22;17263;48.160;11.452;2022-12-10T06:08:32;1.20;99.90
30473;DHT22;17263;48.160;11.452;2022-12-10T06:11:07;1.10;99.90
30473;DHT22;17263;48.160;11.452;2022-12-10T06:13:33;1.10;99.90
30473;DHT22;17263;48.160;11.452;2022-12-10T06:15:59;1.10;99.90
30473;DHT22;17263;48.160;11.452;2022-12-10T06:18:29;1.10;99.90
30473;DHT22;17263;48.160;11.452;2022-12-10T06:20:55;1.10;99.90
30473;DHT22;17263;48.160;11.452;2022-12-10T06:23:21;1.00;99.90
30473;DHT22;17263;48.160;11.452;2022-12-10T06:25:47;1.00;99.90
30473;DHT22;17263;48.160;11.452;2022-12-10T06:28:13;1.00;99.90
30473;DHT22;17263;48.160;11.452;2022-12-10T06:30:39;1.00;99.90
30473;DHT22;17263;48.160;11.452;2022-12-10T06:33:05;1.00;99.90
30473;DHT22;17263;48.160;11.452;2022-12-10T06:35:31;1.00;99.90
30473;DHT22;17263;48.160;11.452;2022-12-10T06:37:57;1.00;99.90
30473;DHT22;17263;48.160;11.452;2022-12-10T06:40:23;1.00;99.90
30473;DHT22;17263;48.160;11.452;2022-12-10T06:42:51;1.10;99.90
30473;DHT22;17263;48.160;11.452;2022-12-10T06:45:17;1.00;99.90
30473;DHT22;17263;48.160;11.452;2022-12-10T06:47:43;1.00;99.90
30473;DHT22;17263;48.160;11.452;2022-12-10T06:50:09;1.00;99.90
30473;DHT22;17263;48.160;11.452;2022-12-10T06:52:35;1.00;99.90
30473;DHT22;17263;48.160;11.452;2022-12-10T06:55:01;1.00;99.90
30473;DHT22;17263;48.160;11.452;2022-12-10T06:57:28;1.00;99.90
30473;DHT22;17263;48.160;11.452;2022-12-10T06:59:54;1.00;99.90
30473;DHT22;17263;48.160;11.452;2022-12-10T07:02:20;1.00;99.90
30473;DHT22;17263;48.160;11.452;2022-12-10T07:04:46;1.00;99.90
30473;DHT22;17263;48.160;11.452;2022-12-10T07:07:12;1.00;99.90
30473;DHT22;17263;48.160;11.452;2022-12-10T07:09:38;1.00;99.90
30473;DHT22;17263;48.160;11.452;2022-12-10T07:12:04;1.00;99.90
30473;DHT22;17263;48.160;11.452;2022-12-10T07:14:30;1.00;99.90
30473;DHT22;17263;48.160;11.452;2022-12-10T07:16:56;1.00;99.90
30473;DHT22;17263;48.160;11.452;2022-12-10T07:19:22;1.00;99.90
30473;DHT22;17263;48.160;11.452;2022-12-10T07:21:48;1.00;99.90
30473;DHT22;17263;48.160;11.452;2022-12-10T07:24:17;1.00;99.90
30473;DHT22;17263;48.160;11.452;2022-12-10T07:26:44;1.10;99.90
30473;DHT22;17263;48.160;11.452;2022-12-10T07:29:19;1.10;99.90
30473;DHT22;17263;48.160;11.452;2022-12-10T07:31:47;1.10;99.90
30473;DHT22;17263;48.160;11.452;2022-12-10T07:34:14;1.10;99.90
30473;DHT22;17263;48.160;11.452;2022-12-10T07:36:40;1.10;99.90
30473;DHT22;17263;48.160;11.452;2022-12-10T07:39:08;1.10;99.90
30473;DHT22;17263;48.160;11.452;2022-12-10T07:41:35;1.00;99.90
30473;DHT22;17263;48.160;11.452;2022-12-10T07:44:03;1.10;99.90
30473;DHT22;17263;48.160;11.452;2022-12-10T07:46:31;1.00;99.90
30473;DHT22;17263;48.160;11.452;2022-12-10T07:49:00;1.00;99.90
30473;DHT22;17263;48.160;11.452;2022-12-10T07:51:26;1.10;99.90
30473;DHT22;17263;48.160;11.452;2022-12-10T07:53:53;1.10;99.90
30473;DHT22;17263;48.160;11.452;2022-12-10T07:56:20;1.20;99.90
30473;DHT22;17263;48.160;11.452;2022-12-10T07:58:47;1.20;99.90
30473;DHT22;17263;48.160;11.452;2022-12-10T08:01:15;1.20;99.90
30473;DHT22;17263;48.160;11.452;2022-12-10T08:03:41;1.20;99.90
30473;DHT22;17263;48.160;11.452;2022-12-10T08:06:10;1.30;99.90
30473;DHT22;17263;48.160;11.452;2022-12-10T08:08:37;1.20;99.90
30473;DHT22;17263;48.160;11.452;2022-12-10T08:11:04;1.30;99.90
30473;DHT22;17263;48.160;11.452;2022-12-10T08:13:31;1.30;99.90
30473;DHT22;17263;48.160;11.452;2022-12-10T08:16:19;1.30;99.90
30473;DHT22;17263;48.160;11.452;2022-12-10T08:18:45;1.30;99.90
30473;DHT22;17263;48.160;11.452;2022-12-10T08:21:14;1.40;99.90
30473;DHT22;17263;48.160;11.452;2022-12-10T08:23:41;1.30;99.90
30473;DHT22;17263;48.160;11.452;2022-12-10T08:26:10;1.40;99.90
30473;DHT22;17263;48.160;11.452;2022-12-10T08:28:37;1.40;99.90
30473;DHT22;17263;48.160;11.452;2022-12-10T08:31:03;1.40;99.90
30473;DHT22;17263;48.160;11.452;2022-12-10T08:33:32;1.30;99.90
30473;DHT22;17263;48.160;11.452;2022-12-10T08:36:00;1.30;99.90
30473;DHT22;17263;48.160;11.452;2022-12-10T08:38:26;1.30;99.90
30473;DHT22;17263;48.160;11.452;2022-12-10T08:40:52;1.20;99.90
30473;DHT22;17263;48.160;11.452;2022-12-10T08:43:19;1.20;99.90
30473;DHT22;17263;48.160;11.452;2022-12-10T08:45:45;1.20;99.90
30473;DHT22;17263;48.160;11.452;2022-12-10T08:48:11;1.30;99.90
30473;DHT22;17263;48.160;11.452;2022-12-10T08:50:37;1.30;99.90
30473;DHT22;17263;48.160;11.452;2022-12-10T08:53:04;1.30;99.90
30473;DHT22;17263;48.160;11.452;2022-12-10T08:55:30;1.40;99.90
30473;DHT22;17263;48.160;11.452;2022-12-10T08:57:58;1.50;99.90
30473;DHT22;17263;48.160;11.452;2022-12-10T09:00:25;1.50;99.90
30473;DHT22;17263;48.160;11.452;2022-12-10T09:02:52;1.50;99.90
30473;DHT22;17263;48.160;11.452;2022-12-10T09:05:18;1.50;99.90
30473;DHT22;17263;48.160;11.452;2022-12-10T09:07:44;1.50;99.90
30473;DHT22;17263;48.160;11.452;2022-12-10T09:10:10;1.60;99.90
30473;DHT22;17263;48.160;11.452;2022-12-10T09:12:39;1.60;99.90
30473;DHT22;17263;48.160;11.452;2022-12-10T09:15:07;1.60;99.90
30473;DHT22;17263;48.160;11.452;2022-12-10T09:17:35;1.50;99.90
30473;DHT22;17263;48.160;11.452;2022-12-10T09:20:01;1.70;99.90
30473;DHT22;17263;48.160;11.452;2022-12-10T09:22:29;1.70;99.90
30473;DHT22;17263;48.160;11.452;2022-12-10T09:24:55;1.60;99.90
30473;DHT22;17263;48.160;11.452;2022-12-10T09:27:21;1.70;99.90
30473;DHT22;17263;48.160;11.452;2022-12-10T09:29:47;1.70;99.90
30473;DHT22;17263;48.160;11.452;2022-12-10T09:32:13;1.60;99.90
30473;DHT22;17263;48.160;11.452;2022-12-10T09:34:39;1.60;99.90
30473;DHT22;17263;48.160;11.452;2022-12-10T09:37:05;1.60;99.90
30473;DHT22;17263;48.160;11.452;2022-12-10T09:39:31;1.50;99.90
30473;DHT22;17263;48.160;11.452;2022-12-10T09:42:13;1.50;99.90
30473;DHT22;17263;48.160;11.452;2022-12-10T09:44:53;1.60;99.90
30473;DHT22;17263;48.160;11.452;2022-12-10T09:47:40;1.70;99.90
30473;DHT22;17263;48.160;11.452;2022-12-10T09:50:20;1.60;99.90
30473;DHT22;17263;48.160;11.452;2022-12-10T09:52:47;1.70;99.90
30473;DHT22;17263;48.160;11.452;2022-12-10T09:55:18;1.70;99.90
30473;DHT22;17263;48.160;11.452;2022-12-10T09:57:48;1.60;99.90
30473;DHT22;17263;48.160;11.452;2022-12-10T10:02:46;1.50;99.90
30473;DHT22;17263;48.160;11.452;2022-12-10T10:05:24;1.50;99.90
30473;DHT22;17263;48.160;11.452;2022-12-10T10:07:55;1.60;99.90
30473;DHT22;17263;48.160;11.452;2022-12-10T10:10:27;1.60;99.90
30473;DHT22;17263;48.160;11.452;2022-12-10T10:13:25;1.60;99.90
30473;DHT22;17263;48.160;11.452;2022-12-10T10:15:52;1.80;99.90
30473;DHT22;17263;48.160;11.452;2022-12-10T10:20:59;1.70;99.90
30473;DHT22;17263;48.160;11.452;2022-12-10T10:23:25;1.60;99.90
30473;DHT22;17263;48.160;11.452;2022-12-10T10:25:51;1.60;99.90
30473;DHT22;17263;48.160;11.452;2022-12-10T10:28:20;1.60;99.90
30473;DHT22;17263;48.160;11.452;2022-12-10T10:30:47;1.60;99.90
30473;DHT22;17263;48.160;11.452;2022-12-10T10:33:15;1.70;99.90
30473;DHT22;17263;48.160;11.452;2022-12-10T10:38:21;1.70;99.90
30473;DHT22;17263;48.160;11.452;2022-12-10T10:40:57;1.70;99.90
30473;DHT22;17263;48.160;11.452;2022-12-10T10:43:27;1.80;99.90
30473;DHT22;17263;48.160;11.452;2022-12-10T10:46:03;1.80;99.90
30473;DHT22;17263;48.160;11.452;2022-12-10T10:48:31;1.80;99.90
30473;DHT22;17263;48.160;11.452;2022-12-10T10:53:54;1.90;99.90
30473;DHT22;17263;48.160;11.452;2022-12-10T10:56:29;1.80;99.90
30473;DHT22;17263;48.160;11.452;2022-12-10T11:04:14;1.90;99.90
30473;DHT22;17263;48.160;11.452;2022-12-10T11:06:42;1.90;99.90
30473;DHT22;17263;48.160;11.452;2022-12-10T11:09:20;1.90;99.90
30473;DHT22;17263;48.160;11.452;2022-12-10T11:12:20;2.00;99.90
30473;DHT22;17263;48.160;11.452;2022-12-10T11:14:48;2.10;99.90
30473;DHT22;17263;48.160;11.452;2022-12-10T11:22:31;2.10;99.90
30473;DHT22;17263;48.160;11.452;2022-12-10T11:24:58;2.10;99.90
30473;DHT22;17263;48.160;11.452;2022-12-10T11:30:22;2.10;99.90
30473;DHT22;17263;48.160;11.452;2022-12-10T11:32:52;2.10;99.90
30473;DHT22;17263;48.160;11.452;2022-12-10T11:35:50;2.00;99.90
30473;DHT22;17263;48.160;11.452;2022-12-10T11:38:26;2.10;99.90
30473;DHT22;17263;48.160;11.452;2022-12-10T11:41:30;2.10;99.90
30473;DHT22;17263;48.160;11.452;2022-12-10T11:52:31;2.10;99.90
30473;DHT22;17263;48.160;11.452;2022-12-10T11:55:24;2.10;99.90
30473;DHT22;17263;48.160;11.452;2022-12-10T12:00:38;2.00;99.90
30473;DHT22;17263;48.160;11.452;2022-12-10T12:14:31;1.80;99.90
30473;DHT22;17263;48.160;11.452;2022-12-10T12:17:38;1.80;99.90
30473;DHT22;17263;48.160;11.452;2022-12-10T12:19:59;1.90;99.90
30473;DHT22;17263;48.160;11.452;2022-12-10T12:22:34;1.80;99.90
30473;DHT22;17263;48.160;11.452;2022-12-10T12:25:29;1.80;99.90
30473;DHT22;17263;48.160;11.452;2022-12-10T12:28:22;1.80;99.90
30473;DHT22;17263;48.160;11.452;2022-12-10T12:30:58;1.80;99.90
30473;DHT22;17263;48.160;11.452;2022-12-10T12:36:35;1.80;99.90
30473;DHT22;17263;48.160;11.452;2022-12-10T12:50:44;1.70;99.90
30473;DHT22;17263;48.160;11.452;2022-12-10T12:53:17;1.70;99.90
30473;DHT22;17263;48.160;11.452;2022-12-10T12:56:04;1.70;99.90
30473;DHT22;17263;48.160;11.452;2022-12-10T12:58:58;1.70;99.90
30473;DHT22;17263;48.160;11.452;2022-12-10T13:01:37;1.70;99.90
30473;DHT22;17263;48.160;11.452;2022-12-10T13:04:06;1.70;99.90
30473;DHT22;17263;48.160;11.452;2022-12-10T13:06:35;1.60;99.90
30473;DHT22;17263;48.160;11.452;2022-12-10T13:09:23;1.70;99.90
30473;DHT22;17263;48.160;11.452;2022-12-10T13:14:34;1.60;99.90
30473;DHT22;17263;48.160;11.452;2022-12-10T13:17:22;1.70;99.90
30473;DHT22;17263;48.160;11.452;2022-12-10T13:19:50;1.60;99.90
30473;DHT22;17263;48.160;11.452;2022-12-10T13:22:40;1.60;99.90
30473;DHT22;17263;48.160;11.452;2022-12-10T13:25:17;1.70;99.90
30473;DHT22;17263;48.160;11.452;2022-12-10T13:27:57;1.60;99.90
30473;DHT22;17263;48.160;11.452;2022-12-10T13:30:41;1.60;99.90
30473;DHT22;17263;48.160;11.452;2022-12-10T13:33:16;1.70;99.90
30473;DHT22;17263;48.160;11.452;2022-12-10T13:36:03;1.60;99.90
30473;DHT22;17263;48.160;11.452;2022-12-10T13:38:29;1.60;99.90
30473;DHT22;17263;48.160;11.452;2022-12-10T13:41:05;1.60;99.90
30473;DHT22;17263;48.160;11.452;2022-12-10T13:43:59;1.50;99.90
30473;DHT22;17263;48.160;11.452;2022-12-10T13:46:53;1.50;99.90
30473;DHT22;17263;48.160;11.452;2022-12-10T13:49:22;1.50;99.90
30473;DHT22;17263;48.160;11.452;2022-12-10T13:51:59;1.50;99.90
30473;DHT22;17263;48.160;11.452;2022-12-10T13:54:55;1.50;99.90
30473;DHT22;17263;48.160;11.452;2022-12-10T13:57:37;1.50;99.90
30473;DHT22;17263;48.160;11.452;2022-12-10T14:00:21;1.50;99.90
30473;DHT22;17263;48.160;11.452;2022-12-10T14:03:18;1.60;99.90
30473;DHT22;17263;48.160;11.452;2022-12-10T14:11:21;1.60;99.90
30473;DHT22;17263;48.160;11.452;2022-12-10T14:13:52;1.60;99.90
30473;DHT22;17263;48.160;11.452;2022-12-10T14:16:21;1.60;99.90
30473;DHT22;17263;48.160;11.452;2022-12-10T14:18:58;1.50;99.90
30473;DHT22;17263;48.160;11.452;2022-12-10T14:21:25;1.50;99.90
30473;DHT22;17263;48.160;11.452;2022-12-10T14:23:52;1.50;99.90
30473;DHT22;17263;48.160;11.452;2022-12-10T14:26:27;1.50;99.90
30473;DHT22;17263;48.160;11.452;2022-12-10T14:28:56;1.50;99.90
30473;DHT22;17263;48.160;11.452;2022-12-10T14:31:30;1.50;99.90
30473;DHT22;17263;48.160;11.452;2022-12-10T14:34:01;1.50;99.90
30473;DHT22;17263;48.160;11.452;2022-12-10T14:36:39;1.50;99.90
30473;DHT22;17263;48.160;11.452;2022-12-10T14:39:14;1.40;99.90
30473;DHT22;17263;48.160;11.452;2022-12-10T14:41:41;1.40;99.90
30473;DHT22;17263;48.160;11.452;2022-12-10T14:44:12;1.40;99.90
30473;DHT22;17263;48.160;11.452;2022-12-10T14:46:39;1.50;99.90
30473;DHT22;17263;48.160;11.452;2022-12-10T14:49:11;1.50;99.90
30473;DHT22;17263;48.160;11.452;2022-12-10T14:51:40;1.50;99.90
30473;DHT22;17263;48.160;11.452;2022-12-10T14:54:29;1.40;99.90
30473;DHT22;17263;48.160;11.452;2022-12-10T14:57:08;1.40;99.90
30473;DHT22;17263;48.160;11.452;2022-12-10T15:02:45;1.30;99.90
30473;DHT22;17263;48.160;11.452;2022-12-10T15:05:29;1.30;99.90
30473;DHT22;17263;48.160;11.452;2022-12-10T15:08:11;1.30;99.90
30473;DHT22;17263;48.160;11.452;2022-12-10T15:10:43;1.30;99.90
30473;DHT22;17263;48.160;11.452;2022-12-10T15:13:22;1.20;99.90
30473;DHT22;17263;48.160;11.452;2022-12-10T15:15:51;1.30;99.90
30473;DHT22;17263;48.160;11.452;2022-12-10T15:18:28;1.30;99.90
30473;DHT22;17263;48.160;11.452;2022-12-10T15:21:11;1.30;99.90
30473;DHT22;17263;48.160;11.452;2022-12-10T15:23:40;1.20;99.90
30473;DHT22;17263;48.160;11.452;2022-12-10T15:26:19;1.20;99.90
30473;DHT22;17263;48.160;11.452;2022-12-10T15:28:47;1.30;99.90
30473;DHT22;17263;48.160;11.452;2022-12-10T15:34:06;1.30;99.90
30473;DHT22;17263;48.160;11.452;2022-12-10T15:36:42;1.30;99.90
30473;DHT22;17263;48.160;11.452;2022-12-10T15:39:23;1.30;99.90
30473;DHT22;17263;48.160;11.452;2022-12-10T15:41:53;1.20;99.90
30473;DHT22;17263;48.160;11.452;2022-12-10T15:44:31;1.30;99.90
30473;DHT22;17263;48.160;11.452;2022-12-10T15:47:18;1.20;99.90
30473;DHT22;17263;48.160;11.452;2022-12-10T15:49:46;1.30;99.90
30473;DHT22;17263;48.160;11.452;2022-12-10T15:52:18;1.20;99.90
30473;DHT22;17263;48.160;11.452;2022-12-10T15:54:46;1.10;99.90
30473;DHT22;17263;48.160;11.452;2022-12-10T15:59:43;1.20;99.90
30473;DHT22;17263;48.160;11.452;2022-12-10T16:05:12;1.10;99.90
30473;DHT22;17263;48.160;11.452;2022-12-10T16:07:39;1.00;99.90
30473;DHT22;17263;48.160;11.452;2022-12-10T16:10:06;1.00;99.90
30473;DHT22;17263;48.160;11.452;2022-12-10T16:12:35;1.00;99.90
30473;DHT22;17263;48.160;11.452;2022-12-10T16:15:03;1.00;99.90
30473;DHT22;17263;48.160;11.452;2022-12-10T16:17:30;1.00;99.90
30473;DHT22;17263;48.160;11.452;2022-12-10T16:22:45;1.00;99.90
30473;DHT22;17263;48.160;11.452;2022-12-10T16:25:12;0.90;99.90
30473;DHT22;17263;48.160;11.452;2022-12-10T16:27:38;0.90;99.90
30473;DHT22;17263;48.160;11.452;2022-12-10T16:30:14;0.90;99.90
30473;DHT22;17263;48.160;11.452;2022-12-10T16:32:41;1.00;99.90
30473;DHT22;17263;48.160;11.452;2022-12-10T16:35:08;1.00;99.90
30473;DHT22;17263;48.160;11.452;2022-12-10T16:37:34;1.00;99.90
30473;DHT22;17263;48.160;11.452;2022-12-10T16:40:01;1.00;99.90
30473;DHT22;17263;48.160;11.452;2022-12-10T16:42:27;1.00;99.90
30473;DHT22;17263;48.160;11.452;2022-12-10T16:44:54;1.00;99.90
30473;DHT22;17263;48.160;11.452;2022-12-10T16:47:21;1.00;99.90
30473;DHT22;17263;48.160;11.452;2022-12-10T16:49:47;1.00;99.90
30473;DHT22;17263;48.160;11.452;2022-12-10T16:52:14;0.90;99.90
30473;DHT22;17263;48.160;11.452;2022-12-10T16:54:40;0.90;99.90
30473;DHT22;17263;48.160;11.452;2022-12-10T16:57:14;0.90;99.90
30473;DHT22;17263;48.160;11.452;2022-12-10T16:59:41;0.90;99.90
30473;DHT22;17263;48.160;11.452;2022-12-10T17:02:25;1.00;99.90
30473;DHT22;17263;48.160;11.452;2022-12-10T17:04:51;0.90;99.90
30473;DHT22;17263;48.160;11.452;2022-12-10T17:07:19;0.90;99.90
30473;DHT22;17263;48.160;11.452;2022-12-10T17:09:45;0.80;99.90
30473;DHT22;17263;48.160;11.452;2022-12-10T17:12:11;0.80;99.90
30473;DHT22;17263;48.160;11.452;2022-12-10T17:14:39;0.80;99.90
30473;DHT22;17263;48.160;11.452;2022-12-10T17:17:08;0.80;99.90
30473;DHT22;17263;48.160;11.452;2022-12-10T17:19:37;0.80;99.90
30473;DHT22;17263;48.160;11.452;2022-12-10T17:22:10;0.80;99.90
30473;DHT22;17263;48.160;11.452;2022-12-10T17:24:38;0.80;99.90
30473;DHT22;17263;48.160;11.452;2022-12-10T17:27:13;0.70;99.90
30473;DHT22;17263;48.160;11.452;2022-12-10T17:29:52;0.70;99.90
30473;DHT22;17263;48.160;11.452;2022-12-10T17:32:27;0.80;99.90
30473;DHT22;17263;48.160;11.452;2022-12-10T17:34:55;0.80;99.90
30473;DHT22;17263;48.160;11.452;2022-12-10T17:37:22;0.80;99.90
30473;DHT22;17263;48.160;11.452;2022-12-10T17:39:50;0.80;99.90